• Join FlightAware (Why Join?)
  • Login
  • US Flag 
09:27AM EDT


 

Airport Tracker/Info


-or-


 

Live Flight TrackerFlight Track Log ✈ AAR8732 ✈ 07-Dec-2013 ✈ RKJY / RSU - RKSS / GMP

Flight Track Log - Related Links

Times and Time Zones

All times are in EST time to prevent confusion due to time zone crossing. See the AAR8732 flight status page for this flight to view local times or setup timezone preferences in your user account.

Time Position Orientation Groundspeed Altitude Reporting Facility
EST Latitude Longitude Course Direction KTS MPH feet Rate Location/Type
06:57PM 35.2083 127.5069 346° North  Level Estimated
06:58PM 35.2820 127.4851 346° North  Level Estimated
06:59PM 35.3557 127.4633 346° North  Level Estimated
07:00PM 35.4293 127.4414 346° North  Level Estimated
07:01PM 35.5030 127.4195 346° North  Level Estimated
07:02PM 35.5767 127.3975 346° North  Level Estimated
07:03PM 35.6503 127.3755 346° North  Level Estimated
07:04PM 35.7240 127.3535 346° North  Level Estimated
07:05PM 35.7977 127.3314 346° North  Level Estimated
07:06PM 35.8713 127.3093 346° North  Level Estimated
07:07PM 35.9450 127.2871 346° North  Level Estimated
07:08PM 36.0186 127.2649 346° North  Level Estimated
07:09PM 36.0922 127.2427 346° North  Level Estimated
07:10PM 36.1659 127.2204 346° North  Level Estimated
07:11PM 36.2395 127.1981 346° North  Level Estimated
07:12PM 36.3131 127.1757 346° North  Level Estimated
07:13PM 36.3868 127.1533 346° North  Level Estimated
07:14PM 36.4604 127.1308 346° North  Level Estimated
07:15PM 36.5340 127.1083 346° North  Level Estimated
07:16PM 36.6076 127.0858 346° North  Level Estimated
07:17PM 36.6812 127.0632 346° North  Level Estimated
07:18PM 36.7548 127.0406 346° North  Level Estimated
07:19PM 36.8284 127.0179 346° North  Level Estimated
07:20PM 36.9020 126.9952 346° North  Level Estimated
07:21PM 36.9756 126.9724 346° North  Level Estimated
07:22PM 37.0492 126.9496 346° North  Level Estimated
07:23PM 37.1228 126.9268 346° North  Level Estimated
07:24PM 37.1964 126.9039 346° North  Level Estimated
07:25PM 37.2699 126.8809 346° North  Level Estimated
07:26PM 37.3435 126.8580 346° North  Level Estimated
07:27PM 37.4170 126.8349 346° North  Level Estimated
07:28PM 37.4906 126.8119 346° North  Level Estimated
07:29PM 37.5583 126.7906 346° North  Level Estimated
07:30PM 37.5583 126.7906 288° West  Level Estimated
07:31PM 37.5583 126.7906 288° West  Level Estimated
07:32PM 37.5583 126.7906 288° West  Level Estimated
07:33PM 37.5583 126.7906 288° West  Level Estimated
07:34PM 37.5583 126.7906 288° West  Level Estimated
07:35PM 37.5583 126.7906 288° West  Level Estimated
07:36PM 37.5583 126.7906 288° West  Level Estimated
07:37PM 37.5583 126.7906 288° West  Level Estimated
07:38PM 37.5583 126.7906 288° West  Level Estimated
07:39PM 37.5583 126.7906 288° West  Level Estimated